sensor_id;sensor_type;location;lat;lon;timestamp;P1;durP1;ratioP1;P2;durP2;ratioP2
2850;SDS011;1433;49.976;8.342;2023-03-12T00:00:49;16.87;;;13.20;;
2850;SDS011;1433;49.976;8.342;2023-03-12T00:03:16;17.40;;;13.03;;
2850;SDS011;1433;49.976;8.342;2023-03-12T00:05:42;19.80;;;14.70;;
2850;SDS011;1433;49.976;8.342;2023-03-12T00:08:09;13.67;;;11.90;;
2850;SDS011;1433;49.976;8.342;2023-03-12T00:10:37;12.27;;;10.57;;
2850;SDS011;1433;49.976;8.342;2023-03-12T00:13:05;14.57;;;11.30;;
2850;SDS011;1433;49.976;8.342;2023-03-12T00:15:34;27.23;;;14.30;;
2850;SDS011;1433;49.976;8.342;2023-03-12T00:18:03;19.77;;;13.10;;
2850;SDS011;1433;49.976;8.342;2023-03-12T00:20:29;21.03;;;12.50;;
2850;SDS011;1433;49.976;8.342;2023-03-12T00:22:55;18.50;;;12.73;;
2850;SDS011;1433;49.976;8.342;2023-03-12T00:25:21;16.03;;;11.37;;
2850;SDS011;1433;49.976;8.342;2023-03-12T00:27:47;16.50;;;11.03;;
2850;SDS011;1433;49.976;8.342;2023-03-12T00:30:14;13.67;;;11.33;;
2850;SDS011;1433;49.976;8.342;2023-03-12T00:32:40;17.60;;;11.97;;
2850;SDS011;1433;49.976;8.342;2023-03-12T00:35:06;15.47;;;13.10;;
2850;SDS011;1433;49.976;8.342;2023-03-12T00:37:33;20.50;;;11.77;;
2850;SDS011;1433;49.976;8.342;2023-03-12T00:40:00;18.70;;;12.50;;
2850;SDS011;1433;49.976;8.342;2023-03-12T00:42:27;18.73;;;12.20;;
2850;SDS011;1433;49.976;8.342;2023-03-12T00:44:53;16.90;;;12.90;;
2850;SDS011;1433;49.976;8.342;2023-03-12T00:47:19;16.30;;;11.60;;
2850;SDS011;1433;49.976;8.342;2023-03-12T00:49:45;13.77;;;12.40;;
2850;SDS011;1433;49.976;8.342;2023-03-12T00:52:12;15.23;;;13.70;;
2850;SDS011;1433;49.976;8.342;2023-03-12T00:54:38;21.10;;;16.10;;
2850;SDS011;1433;49.976;8.342;2023-03-12T00:57:05;16.33;;;12.53;;
2850;SDS011;1433;49.976;8.342;2023-03-12T00:59:32;16.83;;;13.87;;
2850;SDS011;1433;49.976;8.342;2023-03-12T01:01:58;19.80;;;13.70;;
2850;SDS011;1433;49.976;8.342;2023-03-12T01:04:24;17.53;;;12.00;;
2850;SDS011;1433;49.976;8.342;2023-03-12T01:06:50;19.47;;;13.17;;
2850;SDS011;1433;49.976;8.342;2023-03-12T01:09:17;16.13;;;13.57;;
2850;SDS011;1433;49.976;8.342;2023-03-12T01:11:44;20.33;;;13.70;;
2850;SDS011;1433;49.976;8.342;2023-03-12T01:14:10;25.77;;;15.00;;
2850;SDS011;1433;49.976;8.342;2023-03-12T01:16:36;19.30;;;14.80;;
2850;SDS011;1433;49.976;8.342;2023-03-12T01:19:02;18.70;;;13.80;;
2850;SDS011;1433;49.976;8.342;2023-03-12T01:21:29;20.43;;;14.27;;
2850;SDS011;1433;49.976;8.342;2023-03-12T01:23:57;15.43;;;13.50;;
2850;SDS011;1433;49.976;8.342;2023-03-12T01:26:23;17.70;;;14.10;;
2850;SDS011;1433;49.976;8.342;2023-03-12T01:28:50;13.80;;;11.77;;
2850;SDS011;1433;49.976;8.342;2023-03-12T01:31:16;15.00;;;13.07;;
2850;SDS011;1433;49.976;8.342;2023-03-12T01:33:46;23.40;;;14.10;;
2850;SDS011;1433;49.976;8.342;2023-03-12T01:36:17;20.30;;;15.33;;
2850;SDS011;1433;49.976;8.342;2023-03-12T01:38:50;19.03;;;14.90;;
2850;SDS011;1433;49.976;8.342;2023-03-12T01:41:18;13.60;;;12.40;;
2850;SDS011;1433;49.976;8.342;2023-03-12T01:43:45;15.40;;;12.20;;
2850;SDS011;1433;49.976;8.342;2023-03-12T01:49:22;15.87;;;14.07;;
2850;SDS011;1433;49.976;8.342;2023-03-12T01:51:57;15.77;;;14.23;;
2850;SDS011;1433;49.976;8.342;2023-03-12T01:54:44;15.10;;;13.40;;
2850;SDS011;1433;49.976;8.342;2023-03-12T01:57:29;13.90;;;12.30;;
2850;SDS011;1433;49.976;8.342;2023-03-12T02:00:02;16.67;;;13.10;;
2850;SDS011;1433;49.976;8.342;2023-03-12T02:02:40;21.60;;;14.67;;
2850;SDS011;1433;49.976;8.342;2023-03-12T02:05:12;14.23;;;12.73;;
2850;SDS011;1433;49.976;8.342;2023-03-12T02:07:40;15.63;;;14.00;;
2850;SDS011;1433;49.976;8.342;2023-03-12T02:10:06;18.97;;;15.20;;
2850;SDS011;1433;49.976;8.342;2023-03-12T02:12:35;15.60;;;14.00;;
2850;SDS011;1433;49.976;8.342;2023-03-12T02:15:04;18.70;;;12.20;;
2850;SDS011;1433;49.976;8.342;2023-03-12T02:17:32;16.30;;;13.13;;
2850;SDS011;1433;49.976;8.342;2023-03-12T02:20:14;13.97;;;12.37;;
2850;SDS011;1433;49.976;8.342;2023-03-12T02:27:57;13.70;;;12.13;;
2850;SDS011;1433;49.976;8.342;2023-03-12T02:30:26;14.67;;;13.20;;
2850;SDS011;1433;49.976;8.342;2023-03-12T02:32:54;18.03;;;14.53;;
2850;SDS011;1433;49.976;8.342;2023-03-12T02:35:21;15.50;;;13.70;;
2850;SDS011;1433;49.976;8.342;2023-03-12T02:37:51;24.33;;;14.50;;
2850;SDS011;1433;49.976;8.342;2023-03-12T02:40:33;15.23;;;13.13;;
2850;SDS011;1433;49.976;8.342;2023-03-12T02:43:06;18.30;;;13.70;;
2850;SDS011;1433;49.976;8.342;2023-03-12T02:45:34;17.50;;;14.07;;
2850;SDS011;1433;49.976;8.342;2023-03-12T02:48:02;15.20;;;12.17;;
2850;SDS011;1433;49.976;8.342;2023-03-12T02:50:30;14.70;;;13.10;;
2850;SDS011;1433;49.976;8.342;2023-03-12T02:52:56;15.97;;;13.27;;
2850;SDS011;1433;49.976;8.342;2023-03-12T02:55:23;14.63;;;13.20;;
2850;SDS011;1433;49.976;8.342;2023-03-12T02:57:49;16.50;;;14.40;;
2850;SDS011;1433;49.976;8.342;2023-03-12T03:00:15;13.60;;;11.77;;
2850;SDS011;1433;49.976;8.342;2023-03-12T03:02:44;16.07;;;13.50;;
2850;SDS011;1433;49.976;8.342;2023-03-12T03:05:10;13.53;;;12.17;;
2850;SDS011;1433;49.976;8.342;2023-03-12T03:07:37;15.33;;;11.20;;
2850;SDS011;1433;49.976;8.342;2023-03-12T03:10:04;17.73;;;11.73;;
2850;SDS011;1433;49.976;8.342;2023-03-12T03:12:35;15.27;;;11.40;;
2850;SDS011;1433;49.976;8.342;2023-03-12T03:15:02;14.07;;;12.60;;
2850;SDS011;1433;49.976;8.342;2023-03-12T03:17:29;13.53;;;11.43;;
2850;SDS011;1433;49.976;8.342;2023-03-12T03:19:55;13.50;;;12.10;;
2850;SDS011;1433;49.976;8.342;2023-03-12T03:22:21;13.87;;;12.43;;
2850;SDS011;1433;49.976;8.342;2023-03-12T03:24:48;16.77;;;12.83;;
2850;SDS011;1433;49.976;8.342;2023-03-12T03:27:14;18.57;;;13.07;;
2850;SDS011;1433;49.976;8.342;2023-03-12T03:29:40;15.93;;;12.07;;
2850;SDS011;1433;49.976;8.342;2023-03-12T03:32:07;14.27;;;12.20;;
2850;SDS011;1433;49.976;8.342;2023-03-12T03:34:33;12.10;;;10.80;;
2850;SDS011;1433;49.976;8.342;2023-03-12T03:36:59;15.00;;;11.47;;
2850;SDS011;1433;49.976;8.342;2023-03-12T03:39:26;14.60;;;10.50;;
2850;SDS011;1433;49.976;8.342;2023-03-12T03:41:55;11.40;;;10.30;;
2850;SDS011;1433;49.976;8.342;2023-03-12T03:44:22;13.40;;;11.30;;
2850;SDS011;1433;49.976;8.342;2023-03-12T03:46:49;11.93;;;10.67;;
2850;SDS011;1433;49.976;8.342;2023-03-12T03:49:15;12.17;;;10.90;;
2850;SDS011;1433;49.976;8.342;2023-03-12T03:51:42;10.87;;;9.53;;
2850;SDS011;1433;49.976;8.342;2023-03-12T03:54:10;12.83;;;10.70;;
2850;SDS011;1433;49.976;8.342;2023-03-12T03:56:38;12.37;;;11.17;;
2850;SDS011;1433;49.976;8.342;2023-03-12T03:59:05;11.57;;;9.37;;
2850;SDS011;1433;49.976;8.342;2023-03-12T04:01:32;11.87;;;10.23;;
2850;SDS011;1433;49.976;8.342;2023-03-12T04:03:58;10.60;;;9.57;;
2850;SDS011;1433;49.976;8.342;2023-03-12T04:06:25;13.03;;;11.10;;
2850;SDS011;1433;49.976;8.342;2023-03-12T04:08:51;12.13;;;10.97;;
2850;SDS011;1433;49.976;8.342;2023-03-12T04:11:19;13.23;;;10.53;;
2850;SDS011;1433;49.976;8.342;2023-03-12T04:13:47;14.03;;;10.37;;
2850;SDS011;1433;49.976;8.342;2023-03-12T04:16:15;13.13;;;10.70;;
2850;SDS011;1433;49.976;8.342;2023-03-12T04:18:42;12.97;;;10.27;;
2850;SDS011;1433;49.976;8.342;2023-03-12T04:21:10;12.00;;;9.93;;
2850;SDS011;1433;49.976;8.342;2023-03-12T04:23:38;16.90;;;10.30;;
2850;SDS011;1433;49.976;8.342;2023-03-12T04:26:05;15.83;;;10.70;;
2850;SDS011;1433;49.976;8.342;2023-03-12T04:28:33;10.67;;;9.60;;
2850;SDS011;1433;49.976;8.342;2023-03-12T04:31:02;24.43;;;10.73;;
2850;SDS011;1433;49.976;8.342;2023-03-12T04:33:33;11.60;;;8.77;;
2850;SDS011;1433;49.976;8.342;2023-03-12T04:36:02;12.43;;;9.40;;
2850;SDS011;1433;49.976;8.342;2023-03-12T04:38:29;10.47;;;9.33;;
2850;SDS011;1433;49.976;8.342;2023-03-12T04:41:00;10.50;;;9.30;;
2850;SDS011;1433;49.976;8.342;2023-03-12T04:43:29;11.50;;;10.20;;
2850;SDS011;1433;49.976;8.342;2023-03-12T04:46:00;12.63;;;8.50;;
2850;SDS011;1433;49.976;8.342;2023-03-12T04:48:26;16.53;;;10.00;;
2850;SDS011;1433;49.976;8.342;2023-03-12T04:50:53;10.63;;;9.50;;
2850;SDS011;1433;49.976;8.342;2023-03-12T04:53:20;17.23;;;10.30;;
2850;SDS011;1433;49.976;8.342;2023-03-12T04:55:48;9.83;;;8.83;;
2850;SDS011;1433;49.976;8.342;2023-03-12T04:58:15;12.03;;;9.87;;
2850;SDS011;1433;49.976;8.342;2023-03-12T05:00:42;9.80;;;8.80;;
2850;SDS011;1433;49.976;8.342;2023-03-12T05:03:09;10.20;;;8.50;;
2850;SDS011;1433;49.976;8.342;2023-03-12T05:05:35;9.77;;;8.23;;
2850;SDS011;1433;49.976;8.342;2023-03-12T05:08:02;14.10;;;10.43;;
2850;SDS011;1433;49.976;8.342;2023-03-12T05:10:30;13.10;;;9.40;;
2850;SDS011;1433;49.976;8.342;2023-03-12T05:12:57;9.23;;;8.27;;
2850;SDS011;1433;49.976;8.342;2023-03-12T05:15:24;11.00;;;9.90;;
2850;SDS011;1433;49.976;8.342;2023-03-12T05:17:51;12.00;;;9.80;;
2850;SDS011;1433;49.976;8.342;2023-03-12T05:20:18;9.10;;;7.20;;
2850;SDS011;1433;49.976;8.342;2023-03-12T05:22:45;12.50;;;8.60;;
2850;SDS011;1433;49.976;8.342;2023-03-12T05:25:12;11.30;;;8.43;;
2850;SDS011;1433;49.976;8.342;2023-03-12T05:27:42;9.43;;;8.53;;
2850;SDS011;1433;49.976;8.342;2023-03-12T05:30:08;11.70;;;8.83;;
2850;SDS011;1433;49.976;8.342;2023-03-12T05:32:36;10.40;;;9.40;;
2850;SDS011;1433;49.976;8.342;2023-03-12T05:35:03;10.53;;;7.87;;
2850;SDS011;1433;49.976;8.342;2023-03-12T05:37:30;8.83;;;8.03;;
2850;SDS011;1433;49.976;8.342;2023-03-12T05:39:58;15.83;;;9.90;;
2850;SDS011;1433;49.976;8.342;2023-03-12T05:42:26;12.20;;;8.57;;
2850;SDS011;1433;49.976;8.342;2023-03-12T05:44:53;9.63;;;7.30;;
2850;SDS011;1433;49.976;8.342;2023-03-12T05:47:20;10.37;;;9.17;;
2850;SDS011;1433;49.976;8.342;2023-03-12T05:49:49;8.37;;;7.67;;
2850;SDS011;1433;49.976;8.342;2023-03-12T05:52:15;14.23;;;7.97;;
2850;SDS011;1433;49.976;8.342;2023-03-12T05:54:42;9.37;;;7.93;;
2850;SDS011;1433;49.976;8.342;2023-03-12T05:57:09;11.60;;;9.07;;
2850;SDS011;1433;49.976;8.342;2023-03-12T05:59:36;13.30;;;7.70;;
2850;SDS011;1433;49.976;8.342;2023-03-12T06:02:02;8.73;;;7.83;;
2850;SDS011;1433;49.976;8.342;2023-03-12T06:04:29;11.07;;;7.73;;
2850;SDS011;1433;49.976;8.342;2023-03-12T06:06:55;8.57;;;7.80;;
2850;SDS011;1433;49.976;8.342;2023-03-12T06:09:23;8.90;;;7.20;;
2850;SDS011;1433;49.976;8.342;2023-03-12T06:11:49;10.07;;;8.57;;
2850;SDS011;1433;49.976;8.342;2023-03-12T06:14:15;12.40;;;7.23;;
2850;SDS011;1433;49.976;8.342;2023-03-12T06:16:42;10.50;;;7.90;;
2850;SDS011;1433;49.976;8.342;2023-03-12T06:19:09;10.17;;;7.80;;
2850;SDS011;1433;49.976;8.342;2023-03-12T06:21:38;10.77;;;8.67;;
2850;SDS011;1433;49.976;8.342;2023-03-12T06:24:06;12.43;;;8.43;;
2850;SDS011;1433;49.976;8.342;2023-03-12T06:26:43;10.90;;;8.07;;
2850;SDS011;1433;49.976;8.342;2023-03-12T06:29:09;8.60;;;7.13;;
2850;SDS011;1433;49.976;8.342;2023-03-12T06:31:35;7.87;;;6.80;;
2850;SDS011;1433;49.976;8.342;2023-03-12T06:34:04;13.30;;;8.10;;
2850;SDS011;1433;49.976;8.342;2023-03-12T06:36:30;8.60;;;7.37;;
2850;SDS011;1433;49.976;8.342;2023-03-12T06:38:56;9.30;;;8.50;;
2850;SDS011;1433;49.976;8.342;2023-03-12T06:41:23;8.70;;;7.77;;
2850;SDS011;1433;49.976;8.342;2023-03-12T06:43:49;9.40;;;8.50;;
2850;SDS011;1433;49.976;8.342;2023-03-12T06:46:16;8.50;;;7.33;;
2850;SDS011;1433;49.976;8.342;2023-03-12T06:48:46;10.40;;;7.80;;
2850;SDS011;1433;49.976;8.342;2023-03-12T06:51:13;9.43;;;8.20;;
2850;SDS011;1433;49.976;8.342;2023-03-12T06:53:40;9.43;;;8.50;;
2850;SDS011;1433;49.976;8.342;2023-03-12T06:56:07;11.27;;;8.33;;
2850;SDS011;1433;49.976;8.342;2023-03-12T06:58:33;10.23;;;8.10;;
2850;SDS011;1433;49.976;8.342;2023-03-12T07:01:00;9.73;;;8.63;;
2850;SDS011;1433;49.976;8.342;2023-03-12T07:03:26;12.50;;;9.20;;
2850;SDS011;1433;49.976;8.342;2023-03-12T07:05:54;9.47;;;8.63;;
2850;SDS011;1433;49.976;8.342;2023-03-12T07:08:20;10.20;;;8.57;;
2850;SDS011;1433;49.976;8.342;2023-03-12T07:10:48;10.60;;;8.93;;
2850;SDS011;1433;49.976;8.342;2023-03-12T07:13:14;13.90;;;8.57;;
2850;SDS011;1433;49.976;8.342;2023-03-12T07:15:40;9.93;;;8.77;;
2850;SDS011;1433;49.976;8.342;2023-03-12T07:18:07;13.17;;;8.37;;
2850;SDS011;1433;49.976;8.342;2023-03-12T07:20:35;10.43;;;9.43;;
2850;SDS011;1433;49.976;8.342;2023-03-12T07:23:03;11.17;;;10.17;;
2850;SDS011;1433;49.976;8.342;2023-03-12T07:25:29;10.63;;;9.23;;
2850;SDS011;1433;49.976;8.342;2023-03-12T07:27:56;10.83;;;9.70;;
2850;SDS011;1433;49.976;8.342;2023-03-12T07:30:22;11.90;;;9.67;;
2850;SDS011;1433;49.976;8.342;2023-03-12T07:32:48;22.03;;;10.53;;
2850;SDS011;1433;49.976;8.342;2023-03-12T07:35:14;11.20;;;9.37;;
2850;SDS011;1433;49.976;8.342;2023-03-12T07:37:41;11.23;;;9.00;;
2850;SDS011;1433;49.976;8.342;2023-03-12T07:40:07;11.27;;;9.87;;
2850;SDS011;1433;49.976;8.342;2023-03-12T07:42:35;10.60;;;9.57;;
2850;SDS011;1433;49.976;8.342;2023-03-12T07:45:01;11.20;;;8.93;;
2850;SDS011;1433;49.976;8.342;2023-03-12T07:47:28;13.83;;;10.33;;
2850;SDS011;1433;49.976;8.342;2023-03-12T07:49:57;16.00;;;14.30;;
2850;SDS011;1433;49.976;8.342;2023-03-12T07:52:23;14.07;;;11.37;;
2850;SDS011;1433;49.976;8.342;2023-03-12T07:54:50;11.40;;;10.30;;
2850;SDS011;1433;49.976;8.342;2023-03-12T07:57:17;12.13;;;9.90;;
2850;SDS011;1433;49.976;8.342;2023-03-12T07:59:43;12.00;;;10.80;;
2850;SDS011;1433;49.976;8.342;2023-03-12T08:02:09;10.87;;;9.97;;
2850;SDS011;1433;49.976;8.342;2023-03-12T08:04:35;13.13;;;11.70;;
2850;SDS011;1433;49.976;8.342;2023-03-12T08:07:01;12.13;;;10.90;;
2850;SDS011;1433;49.976;8.342;2023-03-12T08:09:28;13.53;;;12.23;;
2850;SDS011;1433;49.976;8.342;2023-03-12T08:11:55;21.83;;;14.37;;
2850;SDS011;1433;49.976;8.342;2023-03-12T08:14:21;13.63;;;12.33;;
2850;SDS011;1433;49.976;8.342;2023-03-12T08:16:47;14.37;;;11.80;;
2850;SDS011;1433;49.976;8.342;2023-03-12T08:19:13;17.93;;;10.07;;
2850;SDS011;1433;49.976;8.342;2023-03-12T08:21:40;10.63;;;9.40;;
2850;SDS011;1433;49.976;8.342;2023-03-12T08:24:06;11.10;;;10.00;;
2850;SDS011;1433;49.976;8.342;2023-03-12T08:26:32;13.53;;;12.23;;
2850;SDS011;1433;49.976;8.342;2023-03-12T08:28:59;14.10;;;12.50;;
2850;SDS011;1433;49.976;8.342;2023-03-12T08:31:28;13.93;;;12.03;;
2850;SDS011;1433;49.976;8.342;2023-03-12T08:33:54;13.10;;;11.03;;
2850;SDS011;1433;49.976;8.342;2023-03-12T08:36:20;17.30;;;11.60;;
2850;SDS011;1433;49.976;8.342;2023-03-12T08:38:46;19.63;;;11.90;;
2850;SDS011;1433;49.976;8.342;2023-03-12T08:41:12;12.87;;;11.43;;
2850;SDS011;1433;49.976;8.342;2023-03-12T08:43:39;14.87;;;11.93;;
2850;SDS011;1433;49.976;8.342;2023-03-12T08:46:05;12.33;;;10.57;;
2850;SDS011;1433;49.976;8.342;2023-03-12T08:48:31;13.40;;;12.10;;
2850;SDS011;1433;49.976;8.342;2023-03-12T08:50:58;14.37;;;12.40;;
2850;SDS011;1433;49.976;8.342;2023-03-12T08:53:27;13.00;;;11.20;;
2850;SDS011;1433;49.976;8.342;2023-03-12T08:55:54;15.83;;;14.17;;
2850;SDS011;1433;49.976;8.342;2023-03-12T08:58:21;16.57;;;13.30;;
2850;SDS011;1433;49.976;8.342;2023-03-12T09:00:50;16.13;;;14.70;;
2850;SDS011;1433;49.976;8.342;2023-03-12T09:03:17;16.33;;;14.63;;
2850;SDS011;1433;49.976;8.342;2023-03-12T09:05:43;17.10;;;15.00;;
2850;SDS011;1433;49.976;8.342;2023-03-12T09:08:10;14.47;;;12.67;;
2850;SDS011;1433;49.976;8.342;2023-03-12T09:10:37;13.47;;;12.17;;
2850;SDS011;1433;49.976;8.342;2023-03-12T09:13:04;15.23;;;13.70;;
2850;SDS011;1433;49.976;8.342;2023-03-12T09:15:31;18.90;;;15.30;;
2850;SDS011;1433;49.976;8.342;2023-03-12T09:17:58;14.53;;;13.23;;
2850;SDS011;1433;49.976;8.342;2023-03-12T09:23:10;17.80;;;15.90;;
2850;SDS011;1433;49.976;8.342;2023-03-12T09:25:36;14.20;;;12.70;;
2850;SDS011;1433;49.976;8.342;2023-03-12T09:28:03;16.70;;;11.87;;
2850;SDS011;1433;49.976;8.342;2023-03-12T09:30:30;28.60;;;13.57;;
2850;SDS011;1433;49.976;8.342;2023-03-12T09:32:56;18.33;;;12.30;;
2850;SDS011;1433;49.976;8.342;2023-03-12T09:35:24;16.07;;;12.57;;
2850;SDS011;1433;49.976;8.342;2023-03-12T09:37:52;13.17;;;11.97;;
2850;SDS011;1433;49.976;8.342;2023-03-12T09:40:20;12.57;;;11.20;;
2850;SDS011;1433;49.976;8.342;2023-03-12T09:42:52;14.90;;;13.03;;
2850;SDS011;1433;49.976;8.342;2023-03-12T09:45:37;12.77;;;11.47;;
2850;SDS011;1433;49.976;8.342;2023-03-12T09:48:06;13.03;;;10.70;;
2850;SDS011;1433;49.976;8.342;2023-03-12T09:50:39;12.77;;;11.33;;
2850;SDS011;1433;49.976;8.342;2023-03-12T09:55:54;12.73;;;10.93;;
2850;SDS011;1433;49.976;8.342;2023-03-12T09:58:36;13.23;;;11.87;;
2850;SDS011;1433;49.976;8.342;2023-03-12T10:01:16;12.10;;;10.87;;
2850;SDS011;1433;49.976;8.342;2023-03-12T10:09:28;12.50;;;11.07;;
2850;SDS011;1433;49.976;8.342;2023-03-12T10:20:18;16.33;;;12.43;;
2850;SDS011;1433;49.976;8.342;2023-03-12T10:31:27;16.80;;;13.40;;
2850;SDS011;1433;49.976;8.342;2023-03-12T10:33:57;15.60;;;13.80;;
2850;SDS011;1433;49.976;8.342;2023-03-12T10:36:43;16.77;;;14.87;;
2850;SDS011;1433;49.976;8.342;2023-03-12T10:39:01;15.67;;;14.07;;
2850;SDS011;1433;49.976;8.342;2023-03-12T10:41:29;23.90;;;14.90;;
2850;SDS011;1433;49.976;8.342;2023-03-12T10:43:58;18.17;;;15.83;;
2850;SDS011;1433;49.976;8.342;2023-03-12T10:49:22;16.47;;;14.87;;
2850;SDS011;1433;49.976;8.342;2023-03-12T10:51:53;22.07;;;14.87;;
2850;SDS011;1433;49.976;8.342;2023-03-12T10:57:06;17.77;;;16.03;;
2850;SDS011;1433;49.976;8.342;2023-03-12T10:59:34;19.27;;;15.50;;
2850;SDS011;1433;49.976;8.342;2023-03-12T11:02:11;18.73;;;16.53;;
2850;SDS011;1433;49.976;8.342;2023-03-12T11:04:51;15.50;;;14.10;;
2850;SDS011;1433;49.976;8.342;2023-03-12T11:07:22;15.90;;;14.53;;
2850;SDS011;1433;49.976;8.342;2023-03-12T11:12:37;15.67;;;14.23;;
2850;SDS011;1433;49.976;8.342;2023-03-12T11:20:44;22.83;;;16.27;;
2850;SDS011;1433;49.976;8.342;2023-03-12T11:23:16;16.30;;;14.07;;
2850;SDS011;1433;49.976;8.342;2023-03-12T11:25:40;16.10;;;14.57;;
2850;SDS011;1433;49.976;8.342;2023-03-12T11:28:09;16.80;;;15.17;;
2850;SDS011;1433;49.976;8.342;2023-03-12T11:30:40;17.40;;;15.07;;
2850;SDS011;1433;49.976;8.342;2023-03-12T11:33:08;17.97;;;14.90;;
2850;SDS011;1433;49.976;8.342;2023-03-12T11:38:30;17.77;;;16.20;;
2850;SDS011;1433;49.976;8.342;2023-03-12T11:46:35;16.40;;;14.87;;
2850;SDS011;1433;49.976;8.342;2023-03-12T11:49:18;15.37;;;13.93;;
2850;SDS011;1433;49.976;8.342;2023-03-12T12:05:58;19.67;;;18.00;;
2850;SDS011;1433;49.976;8.342;2023-03-12T12:08:50;17.83;;;15.93;;
2850;SDS011;1433;49.976;8.342;2023-03-12T12:14:23;16.67;;;14.50;;
2850;SDS011;1433;49.976;8.342;2023-03-12T12:22:41;15.70;;;14.30;;
2850;SDS011;1433;49.976;8.342;2023-03-12T12:36:34;14.00;;;12.60;;
2850;SDS011;1433;49.976;8.342;2023-03-12T12:39:05;15.27;;;13.87;;
2850;SDS011;1433;49.976;8.342;2023-03-12T12:41:31;14.87;;;13.47;;
2850;SDS011;1433;49.976;8.342;2023-03-12T12:44:01;14.17;;;12.80;;
2850;SDS011;1433;49.976;8.342;2023-03-12T12:46:34;13.00;;;11.93;;
2850;SDS011;1433;49.976;8.342;2023-03-12T12:49:05;14.53;;;13.03;;
2850;SDS011;1433;49.976;8.342;2023-03-12T12:51:39;16.70;;;13.20;;
2850;SDS011;1433;49.976;8.342;2023-03-12T12:58:28;15.17;;;13.80;;
2850;SDS011;1433;49.976;8.342;2023-03-12T13:00:42;13.80;;;12.60;;
2850;SDS011;1433;49.976;8.342;2023-03-12T13:03:15;15.13;;;13.80;;
2850;SDS011;1433;49.976;8.342;2023-03-12T13:05:44;14.33;;;12.70;;
2850;SDS011;1433;49.976;8.342;2023-03-12T13:13:44;15.60;;;13.40;;
2850;SDS011;1433;49.976;8.342;2023-03-12T13:16:39;13.17;;;11.97;;
2850;SDS011;1433;49.976;8.342;2023-03-12T13:27:29;15.37;;;13.90;;
2850;SDS011;1433;49.976;8.342;2023-03-12T13:29:57;14.30;;;13.10;;
2850;SDS011;1433;49.976;8.342;2023-03-12T13:43:02;21.87;;;13.80;;
2850;SDS011;1433;49.976;8.342;2023-03-12T13:45:41;14.53;;;13.23;;
2850;SDS011;1433;49.976;8.342;2023-03-12T13:48:25;14.20;;;13.00;;
2850;SDS011;1433;49.976;8.342;2023-03-12T13:50:58;16.53;;;13.77;;
2850;SDS011;1433;49.976;8.342;2023-03-12T13:53:31;16.80;;;15.27;;
2850;SDS011;1433;49.976;8.342;2023-03-12T13:58:40;14.23;;;12.70;;
2850;SDS011;1433;49.976;8.342;2023-03-12T14:01:16;15.93;;;14.20;;
2850;SDS011;1433;49.976;8.342;2023-03-12T14:03:47;15.17;;;13.87;;
2850;SDS011;1433;49.976;8.342;2023-03-12T14:06:18;17.20;;;15.60;;
2850;SDS011;1433;49.976;8.342;2023-03-12T14:08:55;16.43;;;14.00;;
2850;SDS011;1433;49.976;8.342;2023-03-12T14:14:48;15.40;;;14.10;;
2850;SDS011;1433;49.976;8.342;2023-03-12T14:17:18;17.40;;;15.70;;
2850;SDS011;1433;49.976;8.342;2023-03-12T14:19:47;18.63;;;16.47;;
2850;SDS011;1433;49.976;8.342;2023-03-12T14:22:19;15.37;;;13.73;;
2850;SDS011;1433;49.976;8.342;2023-03-12T14:24:48;15.43;;;13.87;;
2850;SDS011;1433;49.976;8.342;2023-03-12T14:27:18;16.03;;;14.63;;
2850;SDS011;1433;49.976;8.342;2023-03-12T14:29:52;15.40;;;13.97;;
2850;SDS011;1433;49.976;8.342;2023-03-12T14:32:27;15.97;;;13.83;;
2850;SDS011;1433;49.976;8.342;2023-03-12T14:34:58;16.27;;;14.87;;
2850;SDS011;1433;49.976;8.342;2023-03-12T14:37:31;19.10;;;17.13;;
2850;SDS011;1433;49.976;8.342;2023-03-12T14:40:00;16.33;;;14.63;;
2850;SDS011;1433;49.976;8.342;2023-03-12T14:42:31;18.47;;;16.63;;
2850;SDS011;1433;49.976;8.342;2023-03-12T14:47:41;16.30;;;14.70;;
2850;SDS011;1433;49.976;8.342;2023-03-12T14:50:42;16.30;;;14.67;;
2850;SDS011;1433;49.976;8.342;2023-03-12T14:52:53;18.80;;;15.83;;
2850;SDS011;1433;49.976;8.342;2023-03-12T14:55:22;16.97;;;14.97;;
2850;SDS011;1433;49.976;8.342;2023-03-12T14:58:01;16.77;;;15.07;;
2850;SDS011;1433;49.976;8.342;2023-03-12T15:00:24;15.77;;;14.37;;
2850;SDS011;1433;49.976;8.342;2023-03-12T15:02:52;15.20;;;13.77;;
2850;SDS011;1433;49.976;8.342;2023-03-12T15:05:21;14.83;;;13.37;;
2850;SDS011;1433;49.976;8.342;2023-03-12T15:07:49;16.90;;;15.27;;
2850;SDS011;1433;49.976;8.342;2023-03-12T15:10:21;15.20;;;13.37;;
2850;SDS011;1433;49.976;8.342;2023-03-12T15:12:50;17.50;;;15.70;;
2850;SDS011;1433;49.976;8.342;2023-03-12T15:15:28;17.27;;;15.57;;
2850;SDS011;1433;49.976;8.342;2023-03-12T15:18:02;17.10;;;14.50;;
2850;SDS011;1433;49.976;8.342;2023-03-12T15:20:29;16.77;;;15.00;;
2850;SDS011;1433;49.976;8.342;2023-03-12T15:22:56;16.63;;;14.97;;
2850;SDS011;1433;49.976;8.342;2023-03-12T15:25:28;18.00;;;16.17;;
2850;SDS011;1433;49.976;8.342;2023-03-12T15:28:38;14.83;;;13.40;;
2850;SDS011;1433;49.976;8.342;2023-03-12T15:30:38;17.33;;;14.60;;
2850;SDS011;1433;49.976;8.342;2023-03-12T15:33:05;16.33;;;14.63;;
2850;SDS011;1433;49.976;8.342;2023-03-12T15:35:35;16.20;;;14.63;;
2850;SDS011;1433;49.976;8.342;2023-03-12T15:38:13;15.80;;;14.40;;
2850;SDS011;1433;49.976;8.342;2023-03-12T15:40:40;17.20;;;15.53;;
2850;SDS011;1433;49.976;8.342;2023-03-12T15:43:17;17.47;;;14.97;;
2850;SDS011;1433;49.976;8.342;2023-03-12T15:45:45;17.53;;;15.67;;
2850;SDS011;1433;49.976;8.342;2023-03-12T15:50:48;19.63;;;15.97;;
2850;SDS011;1433;49.976;8.342;2023-03-12T15:55:59;16.43;;;14.93;;
2850;SDS011;1433;49.976;8.342;2023-03-12T16:00:53;17.30;;;14.57;;
2850;SDS011;1433;49.976;8.342;2023-03-12T16:03:20;18.07;;;16.27;;
2850;SDS011;1433;49.976;8.342;2023-03-12T16:05:47;17.20;;;15.40;;
2850;SDS011;1433;49.976;8.342;2023-03-12T16:08:17;21.47;;;17.80;;
2850;SDS011;1433;49.976;8.342;2023-03-12T16:10:48;21.20;;;15.40;;
2850;SDS011;1433;49.976;8.342;2023-03-12T16:13:16;19.33;;;15.67;;
2850;SDS011;1433;49.976;8.342;2023-03-12T16:15:44;15.27;;;13.83;;
2850;SDS011;1433;49.976;8.342;2023-03-12T16:18:12;18.20;;;16.13;;
2850;SDS011;1433;49.976;8.342;2023-03-12T16:20:40;18.30;;;16.57;;
2850;SDS011;1433;49.976;8.342;2023-03-12T16:23:06;17.40;;;15.70;;
2850;SDS011;1433;49.976;8.342;2023-03-12T16:25:33;17.67;;;15.90;;
2850;SDS011;1433;49.976;8.342;2023-03-12T16:28:00;17.20;;;15.53;;
2850;SDS011;1433;49.976;8.342;2023-03-12T16:30:29;19.50;;;17.70;;
2850;SDS011;1433;49.976;8.342;2023-03-12T16:32:58;17.43;;;15.73;;
2850;SDS011;1433;49.976;8.342;2023-03-12T16:35:25;17.50;;;15.67;;
2850;SDS011;1433;49.976;8.342;2023-03-12T16:38:01;16.83;;;15.10;;
2850;SDS011;1433;49.976;8.342;2023-03-12T16:40:29;20.50;;;18.50;;
2850;SDS011;1433;49.976;8.342;2023-03-12T16:42:57;18.17;;;16.27;;
2850;SDS011;1433;49.976;8.342;2023-03-12T16:45:28;17.20;;;15.70;;
2850;SDS011;1433;49.976;8.342;2023-03-12T16:47:58;17.33;;;15.70;;
2850;SDS011;1433;49.976;8.342;2023-03-12T16:50:25;18.80;;;17.00;;
2850;SDS011;1433;49.976;8.342;2023-03-12T16:52:52;17.17;;;15.43;;
2850;SDS011;1433;49.976;8.342;2023-03-12T16:55:20;17.70;;;15.97;;
2850;SDS011;1433;49.976;8.342;2023-03-12T16:57:49;16.53;;;14.93;;
2850;SDS011;1433;49.976;8.342;2023-03-12T17:00:22;18.23;;;16.43;;
2850;SDS011;1433;49.976;8.342;2023-03-12T17:02:47;16.97;;;15.37;;
2850;SDS011;1433;49.976;8.342;2023-03-12T17:05:14;17.83;;;16.13;;
2850;SDS011;1433;49.976;8.342;2023-03-12T17:07:41;18.23;;;16.43;;
2850;SDS011;1433;49.976;8.342;2023-03-12T17:10:07;18.10;;;16.50;;
2850;SDS011;1433;49.976;8.342;2023-03-12T17:12:38;17.57;;;16.07;;
2850;SDS011;1433;49.976;8.342;2023-03-12T17:17:48;19.27;;;16.97;;
2850;SDS011;1433;49.976;8.342;2023-03-12T17:20:16;22.10;;;17.47;;